Time;durP1;ratioP1;P1;durP2;ratioP2;P2;SDS_P1;SDS_P2;PMS_P1;PMS_P2;Temp;Humidity;BMP_temperature;BMP_pressure;BME280_temperature;BME280_humidity;BME280_pressure;Samples;Min_cycle;Max_cycle;Signal;HPM_P1;HPM_P2
2023/07/13 00:01:49;;;;;;;7.25;2.15;;;24.60;94.20;;;;;;4879578;29;20029;-84
2023/07/13 00:04:17;;;;;;;6.05;2.13;;;24.60;94.70;;;;;;4864332;29;20044;-84
2023/07/13 00:06:47;;;;;;;5.90;2.05;;;24.70;94.50;;;;;;4864456;29;20135;-84
2023/07/13 00:09:15;;;;;;;3.85;2.00;;;24.70;94.90;;;;;;4881913;29;20029;-84
2023/07/13 00:11:41;;;;;;;4.63;2.20;;;24.80;95.40;;;;;;4879153;29;20060;-84
2023/07/13 00:14:08;;;;;;;6.15;2.42;;;24.80;95.20;;;;;;4864335;29;20032;-84
2023/07/13 00:16:36;;;;;;;6.95;2.20;;;24.70;95.30;;;;;;4879767;29;20036;-84
2023/07/13 00:19:02;;;;;;;11.00;2.38;;;24.70;95.10;;;;;;4864678;29;20457;-84
2023/07/13 00:21:28;;;;;;;6.70;2.40;;;24.70;95.40;;;;;;4864661;29;20124;-84
2023/07/13 00:23:54;;;;;;;5.25;1.80;;;24.70;95.70;;;;;;4880527;29;20032;-84
2023/07/13 00:26:20;;;;;;;5.87;2.10;;;24.70;95.50;;;;;;4880491;29;20127;-84
2023/07/13 00:28:46;;;;;;;5.90;2.00;;;24.70;95.60;;;;;;4864627;29;20047;-84
2023/07/13 00:31:14;;;;;;;4.90;2.17;;;24.70;95.70;;;;;;4864434;29;20327;-84
2023/07/13 00:33:41;;;;;;;10.25;2.83;;;24.70;95.90;;;;;;4880162;29;20044;-84
2023/07/13 00:36:08;;;;;;;4.25;2.67;;;24.60;95.50;;;;;;4880344;29;20111;-84
2023/07/13 00:38:35;;;;;;;4.90;2.60;;;24.70;95.70;;;;;;4880195;29;20080;-84
2023/07/13 00:41:01;;;;;;;3.33;2.35;;;24.70;95.70;;;;;;4897183;29;20204;-84
2023/07/13 00:43:28;;;;;;;9.63;2.50;;;24.60;96.10;;;;;;4880093;29;20063;-84
2023/07/13 00:45:54;;;;;;;7.65;2.20;;;24.60;96.00;;;;;;4880133;29;20403;-84
2023/07/13 00:48:34;;;;;;;7.63;2.97;;;24.50;95.60;;;;;;4865000;29;20048;-84
2023/07/13 00:51:02;;;;;;;6.97;2.63;;;24.50;96.90;;;;;;4884369;29;20115;-84
2023/07/13 00:53:31;;;;;;;7.25;2.78;;;24.40;96.30;;;;;;4883899;29;20041;-84
2023/07/13 00:55:57;;;;;;;6.35;2.72;;;24.40;96.00;;;;;;4884696;29;20039;-84
2023/07/13 00:58:28;;;;;;;10.00;2.58;;;24.40;96.10;;;;;;4882565;29;20037;-85
2023/07/13 01:00:54;;;;;;;6.28;2.50;;;24.40;96.20;;;;;;4882331;29;20119;-84
2023/07/13 01:03:20;;;;;;;11.90;2.77;;;24.40;95.90;;;;;;4883234;29;20472;-85
2023/07/13 01:05:49;;;;;;;5.85;2.75;;;24.40;95.80;;;;;;4883028;29;20485;-84
2023/07/13 01:08:16;;;;;;;8.65;2.45;;;24.30;95.90;;;;;;4882718;29;20033;-84
2023/07/13 01:10:55;;;;;;;6.10;2.30;;;24.20;96.10;;;;;;4882739;29;20029;-84
2023/07/13 01:13:21;;;;;;;5.03;2.50;;;24.10;96.20;;;;;;4882365;29;20039;-84
2023/07/13 01:15:49;;;;;;;14.52;3.10;;;24.10;96.60;;;;;;4899142;29;20036;-84
2023/07/13 01:18:18;;;;;;;5.82;3.42;;;24.00;96.90;;;;;;4882526;29;20028;-84
2023/07/13 01:20:55;;;;;;;6.72;3.00;;;24.00;97.50;;;;;;4882792;29;20028;-84
2023/07/13 01:23:22;;;;;;;8.77;3.50;;;24.00;97.50;;;;;;4881419;29;20045;-84
2023/07/13 01:25:48;;;;;;;5.35;3.13;;;24.00;97.40;;;;;;4865287;29;20104;-84
2023/07/13 01:28:16;;;;;;;8.87;3.73;;;23.90;97.50;;;;;;4865424;29;20506;-83
2023/07/13 01:30:45;;;;;;;5.25;3.25;;;23.90;97.90;;;;;;4865010;29;20044;-84
2023/07/13 01:33:12;;;;;;;7.03;3.08;;;23.90;97.70;;;;;;4864214;29;20032;-84
2023/07/13 01:35:38;;;;;;;6.40;3.05;;;23.90;97.50;;;;;;4866996;29;20039;-84
2023/07/13 05:08:33;;;;;;;9.38;7.25;;;24.00;99.90;;;;;;4981855;23;20119;-81
2023/07/13 05:11:01;;;;;;;14.33;8.60;;;24.00;99.90;;;;;;4895420;29;20079;-81
2023/07/13 05:13:26;;;;;;;9.18;7.78;;;23.90;99.90;;;;;;4896673;29;20029;-81
2023/07/13 05:16:00;;;;;;;18.93;14.47;;;23.90;99.90;;;;;;4895299;29;20164;-81
2023/07/13 05:18:27;;;;;;;19.30;14.80;;;24.00;99.90;;;;;;4879617;29;20033;-81
2023/07/13 05:21:02;;;;;;;21.33;14.68;;;24.00;99.90;;;;;;4917483;23;20049;-84
2023/07/13 05:23:28;;;;;;;16.50;11.45;;;24.10;99.90;;;;;;4881615;29;20083;-86
2023/07/13 05:25:54;;;;;;;14.10;10.90;;;24.10;99.90;;;;;;4881413;29;20115;-84
2023/07/13 05:28:20;;;;;;;14.20;9.53;;;24.10;99.90;;;;;;4866329;29;20837;-85
2023/07/13 05:30:47;;;;;;;18.48;10.43;;;24.20;99.90;;;;;;4881856;29;20033;-86
2023/07/13 05:33:13;;;;;;;13.52;9.45;;;24.20;99.90;;;;;;4866481;29;20113;-84
2023/07/13 05:35:39;;;;;;;12.00;8.37;;;24.20;99.90;;;;;;4869758;29;20454;-84
2023/07/13 05:38:06;;;;;;;16.67;8.75;;;24.20;99.90;;;;;;4869645;29;20029;-85
2023/07/13 05:40:32;;;;;;;13.82;8.35;;;24.30;99.90;;;;;;4887244;29;20036;-84
2023/07/13 05:42:58;;;;;;;10.15;7.90;;;24.20;99.90;;;;;;4885416;29;20025;-85
2023/07/13 05:45:24;;;;;;;10.87;7.30;;;24.20;99.90;;;;;;4885496;29;20498;-85
2023/07/13 05:47:49;;;;;;;10.30;6.50;;;24.20;99.90;;;;;;4885098;29;20044;-84
2023/07/13 05:50:15;;;;;;;10.13;7.07;;;24.20;99.90;;;;;;4887570;29;20036;-84
2023/07/13 05:52:41;;;;;;;10.33;6.20;;;24.20;99.90;;;;;;4885267;29;20025;-85
2023/07/13 05:55:07;;;;;;;9.97;6.73;;;24.20;99.90;;;;;;4887407;29;20033;-86
2023/07/13 05:57:33;;;;;;;15.32;6.80;;;24.20;99.90;;;;;;4870163;29;20077;-84
2023/07/13 05:59:59;;;;;;;10.90;6.83;;;24.10;99.90;;;;;;4887628;29;20025;-85
2023/07/13 06:02:26;;;;;;;11.83;7.33;;;24.10;99.90;;;;;;4885943;29;20037;-87
2023/07/13 06:04:52;;;;;;;13.15;6.50;;;24.10;99.90;;;;;;4887806;29;20030;-84
2023/07/13 06:07:18;;;;;;;11.97;6.73;;;24.10;99.90;;;;;;4872762;29;20048;-85
2023/07/13 06:09:43;;;;;;;27.30;8.10;;;24.00;99.90;;;;;;4889191;29;20397;-84
2023/07/13 06:12:10;;;;;;;10.00;6.67;;;24.00;99.90;;;;;;4886893;29;20493;-84
2023/07/13 06:14:35;;;;;;;7.97;5.90;;;24.10;99.90;;;;;;4885400;29;20037;-85
2023/07/13 06:17:01;;;;;;;9.20;5.90;;;24.00;99.90;;;;;;4885977;29;20626;-84
2023/07/13 06:19:28;;;;;;;9.20;6.40;;;24.00;99.90;;;;;;4885439;29;20029;-85
2023/07/13 06:21:53;;;;;;;9.57;5.55;;;24.10;99.90;;;;;;4883694;29;20041;-84
2023/07/13 06:24:19;;;;;;;9.50;6.07;;;24.10;99.90;;;;;;4885912;29;20116;-84
2023/07/13 06:26:45;;;;;;;12.67;6.60;;;24.10;99.90;;;;;;4883690;29;20486;-85
2023/07/13 06:29:11;;;;;;;13.57;7.20;;;24.10;99.90;;;;;;4869232;29;20439;-87
2023/07/13 06:31:37;;;;;;;7.93;6.20;;;24.10;99.90;;;;;;4885682;29;20033;-85
2023/07/13 06:34:02;;;;;;;8.00;5.90;;;24.20;99.90;;;;;;4883753;29;20081;-85
2023/07/13 06:36:28;;;;;;;8.00;5.87;;;24.20;99.90;;;;;;4886138;29;20036;-87
2023/07/13 06:38:54;;;;;;;8.70;5.30;;;24.20;99.90;;;;;;4869263;29;20120;-84
2023/07/13 06:41:22;;;;;;;9.93;6.73;;;24.20;99.80;;;;;;4883304;29;20035;-85
2023/07/13 06:43:47;;;;;;;9.25;6.03;;;24.10;99.90;;;;;;4883423;29;20037;-87
2023/07/13 06:46:13;;;;;;;8.97;6.47;;;24.10;99.90;;;;;;4883498;29;20040;-86
2023/07/13 06:48:39;;;;;;;9.70;6.83;;;24.00;99.90;;;;;;4884433;29;20088;-86
2023/07/13 06:51:05;;;;;;;10.07;6.97;;;24.00;99.90;;;;;;4883127;29;20029;-84
2023/07/13 06:53:31;;;;;;;11.73;7.57;;;24.00;99.90;;;;;;4883106;29;20475;-84
2023/07/13 06:55:57;;;;;;;8.90;6.60;;;24.00;99.90;;;;;;4882981;29;20514;-85
2023/07/13 06:58:23;;;;;;;9.87;6.67;;;24.10;99.90;;;;;;4883348;29;20429;-84
2023/07/13 07:00:52;;;;;;;10.37;7.00;;;24.10;99.90;;;;;;4882993;29;20033;-84
2023/07/13 07:03:18;;;;;;;11.02;7.05;;;24.00;99.90;;;;;;4883632;29;20586;-86
2023/07/13 07:05:44;;;;;;;8.33;6.87;;;23.90;99.90;;;;;;4883026;29;20033;-87
2023/07/13 07:08:10;;;;;;;8.00;6.80;;;24.00;99.90;;;;;;4884124;29;20281;-87
2023/07/13 07:10:36;;;;;;;13.20;7.40;;;24.10;99.90;;;;;;4868750;29;20273;-84
2023/07/13 07:13:02;;;;;;;9.80;7.05;;;24.10;99.90;;;;;;4883548;29;20044;-85
2023/07/13 07:15:28;;;;;;;7.57;6.32;;;24.30;99.90;;;;;;4884361;29;20112;-86
2023/07/13 07:17:54;;;;;;;9.80;5.97;;;24.40;99.90;;;;;;4883403;29;20029;-86
2023/07/13 07:20:20;;;;;;;8.40;6.07;;;24.50;99.90;;;;;;4883154;29;20292;-85
2023/07/13 07:22:46;;;;;;;10.15;6.18;;;24.60;99.70;;;;;;4882725;29;20033;-87
2023/07/13 07:25:12;;;;;;;8.75;5.97;;;24.60;99.90;;;;;;4884318;29;20138;-87
2023/07/13 07:27:38;;;;;;;9.57;6.00;;;24.70;99.90;;;;;;4883387;29;20029;-87
2023/07/13 07:30:05;;;;;;;9.67;6.20;;;24.80;99.90;;;;;;4867494;29;20360;-85
2023/07/13 07:32:31;;;;;;;9.98;6.05;;;24.80;99.90;;;;;;4866496;29;20029;-84
2023/07/13 07:34:58;;;;;;;10.87;6.00;;;24.80;99.90;;;;;;4881753;29;20069;-84
2023/07/13 07:37:24;;;;;;;;;;;24.80;98.90;;;;;;4882408;29;20045;-83
2023/07/13 07:39:49;;;;;;;8.65;5.90;;;24.70;98.60;;;;;;4883110;29;19912;-84
2023/07/13 07:42:16;;;;;;;11.47;5.77;;;24.60;98.60;;;;;;4881824;29;20041;-84
2023/07/13 07:44:42;;;;;;;12.88;6.18;;;24.50;98.20;;;;;;4865627;29;20033;-84
2023/07/13 07:47:09;;;;;;;7.75;5.55;;;24.50;98.40;;;;;;4866563;29;20041;-84
2023/07/13 07:49:36;;;;;;;10.88;5.30;;;24.50;98.40;;;;;;4882779;29;20032;-86
2023/07/13 07:52:02;;;;;;;9.00;4.95;;;24.50;98.40;;;;;;4867051;29;20119;-84
2023/07/13 07:54:28;;;;;;;8.32;4.90;;;24.40;98.70;;;;;;4866741;29;20036;-85
2023/07/13 07:56:54;;;;;;;10.23;5.43;;;24.30;98.90;;;;;;4865709;29;20041;-84
2023/07/13 07:59:20;;;;;;;13.93;5.87;;;24.30;99.20;;;;;;4881930;29;20089;-84
2023/07/13 08:01:47;;;;;;;11.90;5.50;;;24.30;99.90;;;;;;4866358;29;20055;-84
2023/07/13 08:04:13;;;;;;;11.35;5.85;;;24.30;99.70;;;;;;4881797;29;20043;-84
2023/07/13 08:06:52;;;;;;;11.57;6.37;;;24.40;99.30;;;;;;4881820;29;20037;-85
2023/07/13 08:09:17;;;;;;;9.57;5.85;;;24.40;99.50;;;;;;4881741;29;20453;-85
2023/07/13 08:11:43;;;;;;;10.83;6.10;;;24.40;99.40;;;;;;4880797;29;20040;-86
2023/07/13 08:14:09;;;;;;;8.70;5.97;;;24.40;99.50;;;;;;4865574;29;20108;-85
2023/07/13 08:16:35;;;;;;;9.23;5.47;;;24.40;99.60;;;;;;4866085;29;20041;-85
2023/07/13 08:19:01;;;;;;;11.27;6.37;;;24.40;99.50;;;;;;4883916;29;20058;-85
2023/07/13 08:21:27;;;;;;;10.70;6.37;;;24.50;99.90;;;;;;4882296;29;20124;-85
2023/07/13 08:23:53;;;;;;;9.50;6.20;;;24.50;99.70;;;;;;4881792;29;20041;-85
2023/07/13 08:26:19;;;;;;;10.23;5.68;;;24.50;99.50;;;;;;4865178;29;20037;-87
2023/07/13 08:28:45;;;;;;;10.63;5.37;;;24.50;99.30;;;;;;4881997;29;20095;-86
2023/07/13 08:31:11;;;;;;;10.00;5.57;;;24.60;99.30;;;;;;4883601;29;20033;-85
2023/07/13 08:33:38;;;;;;;12.67;5.23;;;24.60;99.10;;;;;;4882159;29;20040;-85
2023/07/13 08:36:05;;;;;;;;;;;24.70;99.10;;;;;;4881930;29;20368;-83
2023/07/13 08:38:30;;;;;;;13.73;5.18;;;24.70;99.20;;;;;;4883739;29;19975;-84
2023/07/13 08:40:57;;;;;;;9.20;5.00;;;24.70;99.40;;;;;;4881125;29;20439;-84
2023/07/13 08:43:28;;;;;;;8.63;5.05;;;24.90;99.30;;;;;;4883559;29;20033;-84
2023/07/13 08:46:05;;;;;;;8.00;4.70;;;24.90;98.90;;;;;;4866060;29;20037;-84
2023/07/13 08:48:39;;;;;;;8.60;4.47;;;25.00;98.30;;;;;;4881554;29;20037;-83
2023/07/13 08:51:14;;;;;;;11.02;6.32;;;25.00;98.10;;;;;;4866102;29;20036;-84
2023/07/13 08:53:46;;;;;;;6.72;4.13;;;25.10;97.40;;;;;;4881276;29;20079;-84
2023/07/13 08:56:19;;;;;;;6.43;4.00;;;25.20;97.20;;;;;;4866330;29;20052;-85
2023/07/13 08:58:50;;;;;;;5.90;4.50;;;25.30;97.10;;;;;;4882493;29;20029;-84
2023/07/13 09:01:47;;;;;;;8.68;4.55;;;25.30;97.00;;;;;;4884165;29;20310;-84
2023/07/13 09:04:22;;;;;;;6.53;4.30;;;25.40;96.40;;;;;;4864859;29;20044;-84
2023/07/13 09:06:54;;;;;;;8.48;4.35;;;25.40;96.30;;;;;;4879723;29;20080;-86
2023/07/13 09:09:54;;;;;;;8.02;4.20;;;25.40;96.70;;;;;;4879913;29;20044;-84
2023/07/13 09:12:49;;;;;;;9.80;4.40;;;25.50;96.40;;;;;;4884707;29;20040;-86
2023/07/13 09:15:24;;;;;;;6.07;3.75;;;25.50;95.40;;;;;;4878316;29;20045;-84
2023/07/13 09:17:54;;;;;;;10.68;3.92;;;25.60;95.60;;;;;;4885446;29;20099;-84
2023/07/13 09:20:23;;;;;;;6.28;3.72;;;25.70;95.40;;;;;;4883246;29;20101;-84
2023/07/13 09:22:50;;;;;;;7.00;4.15;;;25.80;95.20;;;;;;4886034;29;20162;-84
2023/07/13 09:25:34;;;;;;;7.97;4.05;;;26.00;95.60;;;;;;4883413;29;20502;-84
2023/07/13 09:28:17;;;;;;;9.32;4.07;;;26.20;95.00;;;;;;4882202;29;20081;-85
2023/07/13 09:30:54;;;;;;;10.75;5.15;;;26.30;94.40;;;;;;4881248;29;20025;-84
2023/07/13 09:33:22;;;;;;;10.23;4.45;;;26.30;94.60;;;;;;4882923;29;20628;-84
2023/07/13 09:35:49;;;;;;;11.10;4.50;;;26.30;94.60;;;;;;4881457;29;20115;-84
2023/07/13 09:38:22;;;;;;;14.25;4.85;;;26.30;94.20;;;;;;4881525;29;20044;-84
2023/07/13 09:41:08;;;;;;;10.57;4.15;;;26.30;93.70;;;;;;4881822;29;20491;-83
2023/07/13 09:43:35;;;;;;;9.32;4.65;;;26.30;93.70;;;;;;4865599;29;20041;-84
2023/07/13 09:46:01;;;;;;;21.63;6.55;;;26.40;94.00;;;;;;4880909;29;20025;-86
2023/07/13 09:48:39;;;;;;;12.90;4.60;;;26.40;93.30;;;;;;4881121;29;20029;-86
2023/07/13 09:51:15;;;;;;;12.73;4.80;;;26.40;92.90;;;;;;4881524;29;20033;-85
2023/07/13 09:53:43;;;;;;;7.80;4.13;;;26.30;92.90;;;;;;4881594;29;20036;-85
2023/07/13 09:56:29;;;;;;;7.38;4.00;;;26.30;92.70;;;;;;4882419;29;20037;-84
2023/07/13 09:58:57;;;;;;;8.43;4.07;;;26.40;92.60;;;;;;4881471;29;20549;-87
2023/07/13 10:01:37;;;;;;;6.75;3.58;;;26.50;92.60;;;;;;4881609;29;20044;-85
2023/07/13 10:04:16;;;;;;;7.65;4.30;;;26.80;91.70;;;;;;4880593;29;20041;-84
2023/07/13 10:06:42;;;;;;;11.55;4.43;;;27.20;91.40;;;;;;4880256;29;20041;-84
2023/07/13 10:09:10;;;;;;;7.95;4.00;;;27.50;91.30;;;;;;4880544;29;20025;-84
2023/07/13 10:11:37;;;;;;;8.57;4.40;;;27.80;90.30;;;;;;4880948;29;20044;-85
2023/07/13 10:14:17;;;;;;;12.80;5.75;;;28.00;88.70;;;;;;4867229;29;20029;-82
2023/07/13 10:16:45;;;;;;;8.05;4.50;;;28.20;87.40;;;;;;4882065;29;20041;-84
2023/07/13 10:19:11;;;;;;;9.07;3.90;;;28.10;86.20;;;;;;4882964;29;20074;-86
2023/07/13 10:22:07;;;;;;;9.23;4.50;;;28.10;86.10;;;;;;4869412;29;20479;-84
2023/07/13 10:24:38;;;;;;;8.77;4.30;;;28.30;87.10;;;;;;4887639;29;20048;-86
2023/07/13 10:27:13;;;;;;;8.48;4.43;;;28.60;84.90;;;;;;4879661;29;20061;-84
2023/07/13 10:29:46;;;;;;;6.53;4.03;;;28.80;84.80;;;;;;4852059;29;20052;-83
2023/07/13 10:32:13;;;;;;;4.68;3.75;;;29.00;82.70;;;;;;4879019;29;20036;-87
2023/07/13 10:34:41;;;;;;;14.75;4.45;;;29.00;80.90;;;;;;4867397;29;20120;-83
2023/07/13 10:37:18;;;;;;;9.68;4.80;;;29.20;81.30;;;;;;4867564;29;20033;-83
2023/07/13 10:39:44;;;;;;;14.27;4.78;;;29.30;77.00;;;;;;4877830;29;20041;-84
2023/07/13 10:42:17;;;;;;;5.80;4.32;;;29.30;77.20;;;;;;4885681;29;20033;-85
2023/07/13 10:44:42;;;;;;;6.80;4.35;;;29.20;76.40;;;;;;4886350;29;20036;-84
2023/07/13 10:47:15;;;;;;;8.40;4.13;;;29.30;77.60;;;;;;4886123;29;20033;-83
2023/07/13 10:49:59;;;;;;;8.52;3.90;;;29.30;76.90;;;;;;4887859;29;20379;-83
2023/07/13 10:52:54;;;;;;;5.53;4.07;;;29.30;78.80;;;;;;4887318;29;20033;-86
2023/07/13 10:55:56;;;;;;;12.23;3.97;;;29.40;78.00;;;;;;4887780;29;20033;-84
2023/07/13 10:58:32;;;;;;;;;;;29.50;77.80;;;;;;4886024;29;20104;-85
2023/07/13 11:01:15;;;;;;;9.90;4.03;;;29.60;75.90;;;;;;4886094;29;19912;-86
2023/07/13 11:03:43;;;;;;;6.68;3.83;;;29.70;76.80;;;;;;4886626;29;20061;-84
2023/07/13 11:06:24;;;;;;;8.95;4.28;;;29.60;76.90;;;;;;4887894;29;20044;-84
2023/07/13 11:08:52;;;;;;;13.50;4.28;;;29.60;75.10;;;;;;4883539;29;20101;-85
2023/07/13 11:11:24;;;;;;;10.07;3.83;;;29.60;75.90;;;;;;4885531;29;20443;-84
2023/07/13 11:13:53;;;;;;;7.22;4.35;;;29.70;77.80;;;;;;4886713;29;20108;-83
2023/07/13 11:16:26;;;;;;;7.22;3.75;;;29.80;75.90;;;;;;4888102;29;20029;-84
2023/07/13 11:18:53;;;;;;;14.48;4.72;;;29.90;74.20;;;;;;4885840;29;20032;-85
2023/07/13 11:21:26;;;;;;;13.18;5.15;;;29.90;74.90;;;;;;4865268;29;20037;-82
2023/07/13 11:24:08;;;;;;;12.48;5.10;;;29.80;75.40;;;;;;4867730;29;20074;-82
2023/07/13 11:27:14;;;;;;;7.50;4.78;;;29.80;76.40;;;;;;4872211;29;20025;-82
2023/07/13 15:29:59;;;;;;;4.55;3.00;;;37.00;48.90;;;;;;5961138;23;20851;-80
2023/07/13 15:32:24;;;;;;;;;;;37.00;50.00;;;;;;4903247;29;20033;-80
2023/07/13 15:34:50;;;;;;;7.05;3.47;;;36.80;50.90;;;;;;4887361;29;20474;-81
2023/07/13 15:37:16;;;;;;;;;;;36.70;52.50;;;;;;4887088;29;20500;-80
2023/07/13 15:39:42;;;;;;;8.98;3.83;;;36.60;52.00;;;;;;4903942;29;20371;-80
2023/07/13 15:42:14;;;;;;;;;;;36.50;51.50;;;;;;4876358;29;20044;-81
2023/07/13 15:44:40;;;;;;;6.60;4.60;;;36.30;52.20;;;;;;4893581;29;19911;-80
2023/07/13 15:47:09;;;;;;;;;;;36.30;51.80;;;;;;4935810;23;20056;-83
2023/07/13 15:49:35;;;;;;;11.18;5.13;;;36.30;52.10;;;;;;4897244;29;20441;-82
2023/07/13 15:52:01;;;;;;;;;;;36.10;51.60;;;;;;4881151;29;20033;-82
2023/07/13 15:54:27;;;;;;;13.90;4.47;;;35.90;52.60;;;;;;4880491;29;20015;-82
2023/07/13 15:56:55;;;;;;;9.10;3.92;;;35.90;52.70;;;;;;4896998;29;20026;-82
2023/07/13 15:59:22;;;;;;;7.25;3.70;;;35.90;52.80;;;;;;4863371;29;20033;-82
2023/07/13 16:01:49;;;;;;;8.20;3.72;;;35.90;52.30;;;;;;4904787;29;20064;-82
2023/07/13 16:04:15;;;;;;;6.82;3.05;;;36.00;53.10;;;;;;4911285;29;20036;-82
2023/07/13 16:06:41;;;;;;;5.90;3.00;;;35.80;52.50;;;;;;4879701;29;20033;-82
2023/07/13 16:09:10;;;;;;;;;;;35.90;52.90;;;;;;4880153;29;20028;-82
2023/07/13 16:11:38;;;;;;;13.65;3.78;;;35.80;51.60;;;;;;4896918;29;20336;-83
2023/07/13 16:14:05;;;;;;;9.57;3.20;;;35.70;51.50;;;;;;4878880;29;20032;-83
2023/07/13 16:16:34;;;;;;;29.10;5.70;;;35.60;51.50;;;;;;4877125;29;20044;-82
2023/07/13 16:19:05;;;;;;;27.30;4.30;;;35.70;51.70;;;;;;4877056;29;20036;-82
2023/07/13 16:21:35;;;;;;;12.05;3.67;;;35.60;51.90;;;;;;4894580;29;20051;-82
2023/07/13 16:24:02;;;;;;;7.85;3.13;;;35.50;52.30;;;;;;4896770;29;20032;-82
2023/07/13 16:26:38;;;;;;;9.63;3.53;;;35.50;53.30;;;;;;4896679;29;20043;-82
2023/07/13 16:29:17;;;;;;;7.63;2.92;;;35.50;53.80;;;;;;4865763;29;20044;-82
2023/07/13 16:32:07;;;;;;;9.23;2.60;;;35.50;53.80;;;;;;4863912;29;20033;-82
2023/07/13 16:34:36;;;;;;;16.92;4.22;;;35.50;53.70;;;;;;4875810;29;20040;-82
2023/07/13 16:37:05;;;;;;;9.13;3.33;;;35.50;53.20;;;;;;4879700;29;20036;-82
2023/07/13 16:39:31;;;;;;;8.40;3.65;;;35.50;53.30;;;;;;4872390;29;20053;-82
2023/07/13 16:41:58;;;;;;;11.23;2.25;;;35.40;53.20;;;;;;4878535;29;20077;-83
2023/07/13 16:44:27;;;;;;;5.05;1.75;;;35.20;53.40;;;;;;4875518;29;20035;-83
2023/07/13 16:46:55;;;;;;;8.52;2.17;;;35.10;53.70;;;;;;4893926;29;20100;-83
2023/07/13 16:49:35;;;;;;;5.03;2.00;;;34.90;53.90;;;;;;4896251;29;20041;-83
2023/07/13 16:52:03;;;;;;;7.38;2.20;;;34.70;53.80;;;;;;4884382;29;20565;-83
2023/07/13 16:54:35;;;;;;;6.53;2.78;;;34.60;54.70;;;;;;4863355;29;20067;-83
2023/07/13 16:57:12;;;;;;;6.22;2.53;;;34.60;55.40;;;;;;4881622;29;20025;-83
2023/07/13 16:59:37;;;;;;;7.85;2.78;;;34.60;55.30;;;;;;4878008;29;20390;-83
2023/07/13 17:02:23;;;;;;;4.72;2.10;;;34.60;55.20;;;;;;4862166;29;20478;-83
2023/07/13 17:04:50;;;;;;;12.85;3.05;;;34.60;55.60;;;;;;4879380;29;20036;-83
2023/07/13 17:07:21;;;;;;;5.32;1.83;;;34.50;54.70;;;;;;4895757;29;20397;-83
2023/07/13 17:09:48;;;;;;;4.18;1.90;;;34.40;54.20;;;;;;4865433;29;20037;-83
2023/07/13 17:12:15;;;;;;;5.30;2.00;;;34.20;54.00;;;;;;4877892;29;20063;-83
2023/07/13 17:14:41;;;;;;;7.95;2.08;;;34.10;55.00;;;;;;4879312;29;20096;-83
2023/07/13 17:17:36;;;;;;;6.15;2.00;;;33.90;54.80;;;;;;4879278;29;20039;-83
2023/07/13 17:20:03;;;;;;;4.15;2.20;;;33.80;55.30;;;;;;4878256;29;20048;-83
2023/07/13 17:22:29;;;;;;;4.88;1.90;;;33.70;55.80;;;;;;4879067;29;20085;-83
2023/07/13 17:24:55;;;;;;;4.78;1.85;;;33.60;55.90;;;;;;4879493;29;20032;-83
2023/07/13 17:27:20;;;;;;;5.25;2.65;;;33.50;55.80;;;;;;4879377;29;20044;-83
2023/07/13 17:29:49;;;;;;;5.88;2.00;;;33.50;56.10;;;;;;4879521;29;20067;-83
2023/07/13 17:32:19;;;;;;;6.35;2.33;;;33.40;56.30;;;;;;4899440;29;20032;-83
2023/07/13 17:34:46;;;;;;;5.55;1.92;;;33.30;57.00;;;;;;4899668;29;20124;-83
2023/07/13 17:37:17;;;;;;;5.15;2.42;;;33.10;57.10;;;;;;4882729;29;20029;-83
2023/07/13 17:39:44;;;;;;;4.00;1.60;;;33.00;58.00;;;;;;4883040;29;20037;-83
2023/07/13 17:42:13;;;;;;;4.07;1.95;;;32.90;57.70;;;;;;4882798;29;20024;-83
2023/07/13 17:44:39;;;;;;;3.67;1.90;;;32.80;58.30;;;;;;4882712;29;20043;-83
2023/07/13 17:47:15;;;;;;;3.80;1.63;;;32.70;57.90;;;;;;4899104;29;20080;-83
2023/07/13 17:49:43;;;;;;;5.65;1.73;;;32.70;58.20;;;;;;4899583;29;20057;-83
2023/07/13 17:52:09;;;;;;;3.38;1.77;;;32.60;58.40;;;;;;4883289;29;20060;-82
2023/07/13 17:54:35;;;;;;;5.32;1.45;;;32.60;58.70;;;;;;4883077;29;20056;-82
2023/07/13 17:57:00;;;;;;;8.68;2.25;;;32.50;59.10;;;;;;4900135;29;20047;-83
2023/07/13 17:59:26;;;;;;;3.17;1.50;;;32.30;59.30;;;;;;4884024;29;20120;-83
2023/07/13 18:01:52;;;;;;;3.22;2.03;;;32.20;58.90;;;;;;4903423;29;20021;-83
2023/07/13 18:04:22;;;;;;;4.90;1.60;;;32.00;59.20;;;;;;4898425;29;20032;-82
2023/07/13 18:06:56;;;;;;;5.60;1.45;;;31.90;59.20;;;;;;4882032;29;20040;-84
2023/07/13 18:09:26;;;;;;;4.53;1.65;;;31.70;59.00;;;;;;4866679;29;20037;-83
2023/07/13 18:11:54;;;;;;;6.15;2.00;;;31.50;59.90;;;;;;4898650;29;20514;-84
2023/07/13 18:14:21;;;;;;;9.15;2.58;;;31.40;59.50;;;;;;4878048;29;20049;-83
2023/07/13 18:16:53;;;;;;;5.75;2.58;;;31.30;59.80;;;;;;4858763;29;20539;-84
2023/07/13 18:19:36;;;;;;;13.38;3.25;;;31.20;60.40;;;;;;4881925;29;20397;-84
2023/07/13 18:22:11;;;;;;;6.35;2.28;;;31.20;61.00;;;;;;4898783;29;20036;-83
2023/07/13 18:24:37;;;;;;;5.38;1.67;;;31.10;61.10;;;;;;4881886;29;20327;-84
2023/07/13 18:27:04;;;;;;;4.50;1.92;;;31.10;60.40;;;;;;4898748;29;20099;-83
2023/07/13 18:29:31;;;;;;;4.55;1.80;;;31.00;60.50;;;;;;4882203;29;20517;-82
2023/07/13 18:31:58;;;;;;;4.40;2.10;;;31.00;60.60;;;;;;4882521;29;20088;-83
2023/07/13 18:34:24;;;;;;;7.55;2.60;;;31.00;61.10;;;;;;4881609;29;20056;-83
2023/07/13 18:36:51;;;;;;;7.57;2.35;;;30.90;61.40;;;;;;4898083;29;20126;-83
2023/07/13 18:39:17;;;;;;;11.75;3.20;;;30.90;62.30;;;;;;4882060;29;20110;-83
2023/07/13 18:41:46;;;;;;;7.35;3.45;;;30.80;62.60;;;;;;4881792;29;20037;-83
2023/07/13 18:44:13;;;;;;;6.68;2.60;;;30.70;63.60;;;;;;4880709;29;20025;-83
2023/07/13 18:46:39;;;;;;;7.63;2.97;;;30.60;63.90;;;;;;4878401;29;20371;-83
2023/07/13 18:49:05;;;;;;;4.95;2.40;;;30.50;64.30;;;;;;4882269;29;20056;-83
2023/07/13 18:51:31;;;;;;;6.82;2.42;;;30.40;63.70;;;;;;4882935;29;20541;-82
2023/07/13 18:53:57;;;;;;;7.88;3.13;;;30.30;64.30;;;;;;4899584;29;20052;-83
2023/07/13 18:56:23;;;;;;;15.67;4.00;;;30.20;65.10;;;;;;4882712;29;20379;-82
2023/07/13 18:58:49;;;;;;;8.57;2.85;;;30.00;65.80;;;;;;4898794;29;20296;-82
2023/07/13 19:01:18;;;;;;;6.10;2.08;;;29.90;66.50;;;;;;4898807;29;20032;-82
2023/07/13 19:03:44;;;;;;;5.95;1.95;;;29.80;66.30;;;;;;4898648;29;20032;-82
2023/07/13 19:06:11;;;;;;;10.10;2.88;;;29.70;66.90;;;;;;4897993;29;20038;-82
2023/07/13 19:08:40;;;;;;;4.85;2.85;;;29.70;67.10;;;;;;4881999;29;20033;-83
2023/07/13 19:11:18;;;;;;;7.05;2.20;;;29.50;67.40;;;;;;4881932;29;20044;-82
2023/07/13 19:13:50;;;;;;;9.00;2.47;;;29.40;67.50;;;;;;4881499;29;20037;-83
2023/07/13 19:16:17;;;;;;;6.70;2.50;;;29.30;66.80;;;;;;4882734;29;20037;-82
2023/07/13 19:18:42;;;;;;;;;;;29.20;66.80;;;;;;4875157;29;20029;-82
2023/07/13 19:21:32;;;;;;;6.03;1.88;;;29.10;67.80;;;;;;4880813;29;20439;-82
2023/07/13 19:23:59;;;;;;;3.25;2.00;;;28.90;65.10;;;;;;4888581;29;20048;-83
2023/07/13 19:26:33;;;;;;;6.13;1.58;;;28.80;65.20;;;;;;4882761;29;20513;-82
2023/07/13 19:29:00;;;;;;;5.10;1.48;;;28.70;64.70;;;;;;4880140;29;20073;-82
2023/07/13 19:31:36;;;;;;;5.38;1.98;;;28.60;64.30;;;;;;4880629;29;20035;-82
2023/07/13 19:34:19;;;;;;;5.10;2.45;;;28.50;64.80;;;;;;4882402;29;20156;-82
2023/07/13 19:36:47;;;;;;;4.10;2.08;;;28.40;65.80;;;;;;4882299;29;20025;-82
2023/07/13 19:39:31;;;;;;;4.65;2.10;;;28.30;66.00;;;;;;4880008;29;20103;-82
2023/07/13 19:42:03;;;;;;;7.07;2.35;;;28.30;66.30;;;;;;4866021;29;20436;-83
2023/07/13 19:44:29;;;;;;;5.95;2.50;;;28.30;66.10;;;;;;4892145;29;20433;-83
2023/07/13 19:46:58;;;;;;;8.40;2.75;;;28.30;66.70;;;;;;4883145;29;20032;-82
2023/07/13 19:49:25;;;;;;;3.72;2.22;;;28.20;66.70;;;;;;4883132;29;20060;-82
2023/07/13 19:51:51;;;;;;;3.60;2.35;;;28.10;67.00;;;;;;4882932;29;20494;-82
2023/07/13 19:54:16;;;;;;;6.50;2.03;;;28.10;67.30;;;;;;4882983;29;20033;-82
2023/07/13 19:56:43;;;;;;;5.60;2.45;;;28.00;67.70;;;;;;4900491;29;20052;-82
2023/07/13 19:59:32;;;;;;;5.65;2.30;;;28.00;68.10;;;;;;4883371;29;20032;-82
2023/07/13 20:01:59;;;;;;;9.80;3.08;;;28.00;68.90;;;;;;4899263;29;20028;-82
2023/07/13 20:04:25;;;;;;;;;;;27.80;68.90;;;;;;4880669;29;20063;-83
2023/07/13 20:06:51;;;;;;;3.20;1.88;;;27.70;69.30;;;;;;4871065;29;19960;-83
2023/07/13 20:09:21;;;;;;;4.60;2.28;;;27.70;69.30;;;;;;4882225;29;20075;-83
2023/07/13 20:11:47;;;;;;;6.88;2.05;;;27.60;69.20;;;;;;4882748;29;20040;-83
2023/07/13 20:14:22;;;;;;;3.65;1.98;;;27.50;69.50;;;;;;4899946;29;20577;-82
2023/07/13 20:17:00;;;;;;;6.60;1.83;;;27.50;69.70;;;;;;4896975;29;20040;-84
2023/07/13 20:19:41;;;;;;;8.85;2.17;;;27.40;69.50;;;;;;4882166;29;20048;-82
2023/07/13 20:22:11;;;;;;;4.75;2.20;;;27.40;69.80;;;;;;4882714;29;20048;-82
2023/07/13 20:24:37;;;;;;;7.07;2.15;;;27.40;70.30;;;;;;4876507;29;20465;-83
2023/07/13 20:27:05;;;;;;;6.37;2.40;;;27.20;70.40;;;;;;4864926;29;20045;-82
2023/07/13 20:29:31;;;;;;;13.40;2.25;;;27.20;70.60;;;;;;4894454;29;20024;-83